createdAt,value
2022-11-10T00:00:57.788Z,100.00
2022-11-10T00:03:44.471Z,100.00
2022-11-10T00:06:30.998Z,100.00
2022-11-10T00:09:18.057Z,100.00
2022-11-10T00:12:04.471Z,100.00
2022-11-10T00:15:09.862Z,100.00
2022-11-10T00:17:56.372Z,100.00
2022-11-10T00:20:42.906Z,100.00
2022-11-10T00:23:29.448Z,100.00
2022-11-10T00:26:18.943Z,100.00
2022-11-10T00:29:05.380Z,100.00
2022-11-10T00:31:52.316Z,100.00
2022-11-10T00:34:38.657Z,100.00
2022-11-10T00:37:25.146Z,100.00
2022-11-10T00:40:12.101Z,100.00
2022-11-10T00:42:58.779Z,100.00
2022-11-10T00:45:47.133Z,100.00
2022-11-10T00:48:33.865Z,100.00
2022-11-10T00:51:26.896Z,100.00
2022-11-10T00:54:13.501Z,100.00
2022-11-10T00:57:00.326Z,100.00
2022-11-10T00:59:47.224Z,100.00
2022-11-10T01:02:34.127Z,100.00
2022-11-10T01:05:21.151Z,100.00
2022-11-10T01:08:07.910Z,100.00
2022-11-10T01:11:02.867Z,100.00
2022-11-10T01:13:51.085Z,100.00
2022-11-10T01:16:37.891Z,100.00
2022-11-10T01:19:24.318Z,100.00
2022-11-10T01:22:11.050Z,100.00
2022-11-10T01:24:57.579Z,100.00
2022-11-10T01:27:44.085Z,100.00
2022-11-10T01:30:30.548Z,100.00
2022-11-10T01:33:17.872Z,100.00
2022-11-10T01:36:05.582Z,100.00
2022-11-10T01:38:52.423Z,100.00
2022-11-10T01:41:38.867Z,100.00
2022-11-10T01:44:26.113Z,100.00
2022-11-10T01:47:12.391Z,100.00
2022-11-10T01:49:59.325Z,100.00
2022-11-10T01:52:49.099Z,100.00
2022-11-10T01:55:39.286Z,100.00
2022-11-10T01:58:32.598Z,100.00
2022-11-10T02:01:19.125Z,100.00
2022-11-10T02:04:10.694Z,100.00
2022-11-10T02:06:57.993Z,100.00
2022-11-10T02:09:45.170Z,100.00
2022-11-10T02:12:38.543Z,100.00
2022-11-10T02:15:24.878Z,100.00
2022-11-10T02:18:11.885Z,100.00
2022-11-10T02:20:58.649Z,100.00
2022-11-10T02:23:49.145Z,100.00
2022-11-10T02:26:42.254Z,100.00
2022-11-10T02:29:28.969Z,100.00
2022-11-10T02:32:15.545Z,100.00
2022-11-10T02:35:01.997Z,100.00
2022-11-10T02:37:48.724Z,100.00
2022-11-10T02:40:35.551Z,100.00
2022-11-10T02:43:22.560Z,100.00
2022-11-10T02:46:09.671Z,100.00
2022-11-10T02:48:56.243Z,100.00
2022-11-10T02:51:42.896Z,100.00
2022-11-10T02:54:29.435Z,100.00
2022-11-10T02:57:16.425Z,100.00
2022-11-10T03:00:04.790Z,100.00
2022-11-10T03:02:59.477Z,100.00
2022-11-10T03:05:45.940Z,100.00
2022-11-10T03:08:32.947Z,100.00
2022-11-10T03:11:19.364Z,100.00
2022-11-10T03:14:05.855Z,100.00
2022-11-10T03:16:52.869Z,100.00
2022-11-10T03:19:39.849Z,100.00
2022-11-10T03:22:26.230Z,100.00
2022-11-10T03:25:12.858Z,100.00
2022-11-10T03:27:59.427Z,100.00
2022-11-10T03:30:46.277Z,100.00
2022-11-10T03:33:32.944Z,100.00
2022-11-10T03:36:19.885Z,100.00
2022-11-10T03:39:06.891Z,100.00
2022-11-10T03:41:53.767Z,100.00
2022-11-10T03:44:40.401Z,100.00
2022-11-10T03:47:27.233Z,100.00
2022-11-10T03:50:14.344Z,100.00
2022-11-10T03:53:00.987Z,100.00
2022-11-10T03:55:47.760Z,100.00
2022-11-10T03:58:34.939Z,100.00
2022-11-10T04:01:21.547Z,100.00
2022-11-10T04:04:31.256Z,100.00
2022-11-10T04:07:36.675Z,100.00
2022-11-10T04:10:31.749Z,100.00
2022-11-10T04:13:37.208Z,100.00
2022-11-10T04:16:24.173Z,100.00
2022-11-10T04:19:10.559Z,100.00
2022-11-10T04:21:57.264Z,100.00
2022-11-10T04:24:43.651Z,100.00
2022-11-10T04:27:30.925Z,100.00
2022-11-10T04:30:17.561Z,100.00
2022-11-10T04:33:11.961Z,100.00
2022-11-10T04:35:58.323Z,100.00
2022-11-10T04:38:45.406Z,100.00
2022-11-10T04:41:32.833Z,100.00
2022-11-10T04:44:19.355Z,100.00
2022-11-10T04:47:11.528Z,100.00
2022-11-10T04:49:58.730Z,100.00
2022-11-10T04:52:45.493Z,100.00
2022-11-10T04:55:32.176Z,100.00
2022-11-10T04:58:18.892Z,100.00
2022-11-10T05:01:05.629Z,100.00
2022-11-10T05:03:53.198Z,100.00
2022-11-10T05:06:40.490Z,100.00
2022-11-10T05:09:27.319Z,100.00
2022-11-10T05:12:17.347Z,100.00
2022-11-10T05:15:07.305Z,100.00
2022-11-10T05:17:54.792Z,100.00
2022-11-10T05:20:41.135Z,100.00
2022-11-10T05:23:40.571Z,100.00
2022-11-10T05:26:26.840Z,100.00
2022-11-10T05:29:13.288Z,100.00
2022-11-10T05:31:59.548Z,100.00
2022-11-10T05:34:46.096Z,100.00
2022-11-10T05:37:32.708Z,100.00
2022-11-10T05:40:19.537Z,100.00
2022-11-10T05:43:06.543Z,100.00
2022-11-10T05:45:53.537Z,100.00
2022-11-10T05:48:40.239Z,100.00
2022-11-10T05:51:26.760Z,100.00
2022-11-10T05:54:13.518Z,100.00
2022-11-10T05:57:00.363Z,100.00
2022-11-10T05:59:46.778Z,100.00
2022-11-10T06:02:34.474Z,100.00
2022-11-10T06:05:20.853Z,100.00
2022-11-10T06:08:07.754Z,100.00
2022-11-10T06:10:54.675Z,100.00
2022-11-10T06:13:41.378Z,100.00
2022-11-10T06:16:28.166Z,100.00
2022-11-10T06:19:14.519Z,100.00
2022-11-10T06:22:06.388Z,100.00
2022-11-10T06:24:54.217Z,100.00
2022-11-10T06:27:44.562Z,100.00
2022-11-10T06:30:33.541Z,100.00
2022-11-10T06:33:20.449Z,100.00
2022-11-10T06:36:07.449Z,100.00
2022-11-10T06:38:54.212Z,100.00
2022-11-10T06:41:40.626Z,100.00
2022-11-10T06:44:27.508Z,100.00
2022-11-10T06:47:17.914Z,100.00
2022-11-10T06:50:04.687Z,100.00
2022-11-10T06:52:55.153Z,100.00
2022-11-10T06:55:41.845Z,100.00
2022-11-10T06:58:28.303Z,100.00
2022-11-10T07:01:17.641Z,100.00
2022-11-10T07:04:19.552Z,100.00
2022-11-10T07:07:09.339Z,100.00
2022-11-10T07:09:56.024Z,100.00
2022-11-10T07:12:42.434Z,100.00
2022-11-10T07:15:29.574Z,100.00
2022-11-10T07:18:16.238Z,100.00
2022-11-10T07:21:06.905Z,100.00
2022-11-10T07:23:53.599Z,100.00
2022-11-10T07:26:40.317Z,100.00
2022-11-10T07:29:27.387Z,100.00
2022-11-10T07:32:13.760Z,100.00
2022-11-10T07:35:00.250Z,100.00
2022-11-10T07:37:46.941Z,100.00
2022-11-10T07:40:34.077Z,100.00
2022-11-10T07:43:22.355Z,100.00
2022-11-10T07:46:09.771Z,100.00
2022-11-10T07:48:56.372Z,100.00
2022-11-10T07:51:43.527Z,100.00
2022-11-10T07:54:30.270Z,100.00
2022-11-10T07:57:16.647Z,100.00
2022-11-10T08:00:04.334Z,100.00
2022-11-10T08:02:51.271Z,100.00
2022-11-10T08:05:37.907Z,100.00
2022-11-10T08:08:24.631Z,100.00
2022-11-10T08:11:11.074Z,100.00
2022-11-10T08:13:57.371Z,100.00
2022-11-10T08:16:44.188Z,100.00
2022-11-10T08:19:31.263Z,100.00
2022-11-10T08:22:17.761Z,100.00
2022-11-10T08:25:04.498Z,100.00
2022-11-10T08:27:57.397Z,100.00
2022-11-10T08:30:45.946Z,100.00
2022-11-10T08:33:32.582Z,100.00
2022-11-10T08:36:19.517Z,100.00
2022-11-10T08:39:06.566Z,100.00
2022-11-10T08:41:53.018Z,100.00
2022-11-10T08:44:39.335Z,100.00
2022-11-10T08:47:25.765Z,98.05
2022-11-10T08:50:12.599Z,100.00
2022-11-10T08:53:07.086Z,93.81
2022-11-10T08:55:54.161Z,90.26
2022-11-10T08:58:50.233Z,89.19
2022-11-10T09:01:39.945Z,86.12
2022-11-10T09:04:26.695Z,85.99
2022-11-10T09:07:13.512Z,89.58
2022-11-10T09:10:08.127Z,88.25
2022-11-10T09:12:55.105Z,87.73
2022-11-10T09:15:43.632Z,90.94
2022-11-10T09:18:30.742Z,91.58
2022-11-10T09:21:18.094Z,90.70
2022-11-10T09:24:04.933Z,92.42
2022-11-10T09:26:51.696Z,91.19
2022-11-10T09:29:38.415Z,89.08
2022-11-10T09:32:24.918Z,85.83
2022-11-10T09:35:11.250Z,88.80
2022-11-10T09:37:57.931Z,84.78
2022-11-10T09:41:12.423Z,81.08
2022-11-10T09:44:05.918Z,79.09
2022-11-10T09:47:01.477Z,77.72
2022-11-10T09:49:59.128Z,78.64
2022-11-10T09:52:48.015Z,78.96
2022-11-10T09:55:46.877Z,76.94
2022-11-10T09:58:45.282Z,77.53
2022-11-10T10:01:59.439Z,80.29
2022-11-10T10:05:17.144Z,80.48
2022-11-10T10:08:11.683Z,76.97
2022-11-10T10:11:08.276Z,78.56
2022-11-10T10:14:03.376Z,80.77
2022-11-10T10:16:52.762Z,82.00
2022-11-10T10:19:52.460Z,81.96
2022-11-10T10:22:56.100Z,81.85
2022-11-10T10:25:45.815Z,83.18
2022-11-10T10:28:38.120Z,85.26
2022-11-10T10:31:30.180Z,85.17
2022-11-10T10:34:23.613Z,86.65
2022-11-10T10:37:39.709Z,87.85
2022-11-10T10:40:26.537Z,85.98
2022-11-10T10:43:13.255Z,86.23
2022-11-10T10:46:08.501Z,85.30
2022-11-10T10:49:29.483Z,86.03
2022-11-10T10:52:20.540Z,85.01
2022-11-10T10:55:08.450Z,84.73
2022-11-10T10:58:27.262Z,85.61
2022-11-10T11:01:16.994Z,85.12
2022-11-10T11:04:35.740Z,85.87
2022-11-10T11:07:24.685Z,86.73
2022-11-10T11:10:26.234Z,86.55
2022-11-10T11:13:14.773Z,87.18
2022-11-10T11:16:04.530Z,87.90
2022-11-10T11:18:51.609Z,87.69
2022-11-10T11:21:58.438Z,90.03
2022-11-10T11:25:26.432Z,89.65
2022-11-10T11:28:25.390Z,90.96
2022-11-10T11:31:21.723Z,92.97
2022-11-10T11:34:29.963Z,93.61
2022-11-10T11:37:27.059Z,94.02
2022-11-10T11:40:19.258Z,94.32
2022-11-10T11:43:33.596Z,94.27
2022-11-10T11:46:49.693Z,93.96
2022-11-10T11:50:13.698Z,95.42
2022-11-10T11:53:24.129Z,95.61
2022-11-10T11:56:30.687Z,95.00
2022-11-10T11:59:38.628Z,95.10
2022-11-10T12:02:44.173Z,95.96
2022-11-10T12:05:51.706Z,98.43
2022-11-10T12:08:52.756Z,96.68
2022-11-10T12:12:15.462Z,95.61
2022-11-10T12:15:09.049Z,95.37
2022-11-10T12:18:13.949Z,95.14
2022-11-10T12:21:22.615Z,95.61
2022-11-10T12:24:17.920Z,95.44
2022-11-10T12:27:16.419Z,95.53
2022-11-10T12:30:09.117Z,96.19
2022-11-10T12:33:04.496Z,95.28
2022-11-10T12:35:54.000Z,96.22
2022-11-10T12:38:49.748Z,96.53
2022-11-10T12:42:15.019Z,96.58
2022-11-10T12:45:19.084Z,97.75
2022-11-10T12:48:06.545Z,96.60
2022-11-10T12:51:02.053Z,98.04
2022-11-10T12:53:49.545Z,97.53
2022-11-10T12:57:06.118Z,97.05
2022-11-10T13:00:06.021Z,97.17
2022-11-10T13:02:55.448Z,97.44
2022-11-10T13:05:45.477Z,97.65
2022-11-10T13:08:41.158Z,97.13
2022-11-10T13:11:30.463Z,98.14
2022-11-10T13:14:24.085Z,97.30
2022-11-10T13:17:32.038Z,97.41
2022-11-10T13:21:07.403Z,96.48
2022-11-10T13:23:56.823Z,96.61
2022-11-10T13:26:43.005Z,97.44
2022-11-10T13:29:48.160Z,97.53
2022-11-10T13:32:36.418Z,97.72
2022-11-10T13:35:37.441Z,98.76
2022-11-10T13:38:36.378Z,97.45
2022-11-10T13:41:26.048Z,97.75
2022-11-10T13:44:26.298Z,98.03
2022-11-10T13:47:40.097Z,98.26
2022-11-10T13:51:12.997Z,98.88
2022-11-10T13:54:24.054Z,98.17
2022-11-10T13:57:11.721Z,98.90
2022-11-10T14:00:01.113Z,98.51
2022-11-10T14:03:01.409Z,98.00
2022-11-10T14:05:56.782Z,98.25
2022-11-10T14:08:54.246Z,98.30
2022-11-10T14:11:50.121Z,99.31
2022-11-10T14:15:03.208Z,99.11
2022-11-10T14:17:51.643Z,99.86
2022-11-10T14:20:41.749Z,100.00
2022-11-10T14:23:46.254Z,100.00
2022-11-10T14:26:47.942Z,100.00
2022-11-10T14:29:39.237Z,100.00
2022-11-10T14:32:26.604Z,100.00
2022-11-10T14:35:26.571Z,100.00
2022-11-10T14:38:25.254Z,100.00
2022-11-10T14:41:21.109Z,100.00
2022-11-10T14:44:11.306Z,100.00
2022-11-10T14:47:22.951Z,100.00
2022-11-10T14:50:15.569Z,100.00
2022-11-10T14:53:20.420Z,99.87
2022-11-10T14:56:15.811Z,100.00
2022-11-10T14:59:05.778Z,100.00
2022-11-10T15:01:58.289Z,100.00
2022-11-10T15:04:47.560Z,100.00
2022-11-10T15:07:33.982Z,100.00
2022-11-10T15:10:27.254Z,100.00
2022-11-10T15:13:13.337Z,100.00
2022-11-10T15:16:25.681Z,100.00
2022-11-10T15:19:29.223Z,100.00
2022-11-10T15:22:18.335Z,100.00
2022-11-10T15:25:15.147Z,100.00
2022-11-10T15:28:13.670Z,100.00
2022-11-10T15:31:06.773Z,100.00
2022-11-10T15:34:00.580Z,100.00
2022-11-10T15:36:47.826Z,100.00
2022-11-10T15:39:34.573Z,100.00
2022-11-10T15:42:23.865Z,100.00
2022-11-10T15:45:11.808Z,100.00
2022-11-10T15:47:58.924Z,100.00
2022-11-10T15:50:50.751Z,100.00
2022-11-10T15:53:39.214Z,100.00
2022-11-10T15:56:25.743Z,100.00
2022-11-10T15:59:12.395Z,100.00
2022-11-10T16:01:59.337Z,100.00
2022-11-10T16:04:46.936Z,100.00
2022-11-10T16:07:33.442Z,100.00
2022-11-10T16:10:20.507Z,100.00
2022-11-10T16:13:13.331Z,100.00
2022-11-10T16:16:00.433Z,100.00
2022-11-10T16:18:47.114Z,100.00
2022-11-10T16:21:33.792Z,100.00
2022-11-10T16:24:20.548Z,100.00
2022-11-10T16:27:11.408Z,100.00
2022-11-10T16:29:59.095Z,100.00
2022-11-10T16:32:46.044Z,100.00
2022-11-10T16:35:32.406Z,100.00
2022-11-10T16:38:21.231Z,100.00
2022-11-10T16:41:13.922Z,100.00
2022-11-10T16:44:00.487Z,100.00
2022-11-10T16:46:52.683Z,100.00
2022-11-10T16:49:44.963Z,100.00
2022-11-10T16:52:32.159Z,100.00
2022-11-10T16:55:19.180Z,100.00
2022-11-10T16:58:06.250Z,99.87
2022-11-10T17:00:56.959Z,98.56
2022-11-10T17:03:46.693Z,98.57
2022-11-10T17:06:33.503Z,98.65
2022-11-10T17:09:23.447Z,97.88
2022-11-10T17:12:13.316Z,97.62
2022-11-10T17:15:00.198Z,98.48
2022-11-10T17:17:53.871Z,98.54
2022-11-10T17:20:45.449Z,98.06
2022-11-10T17:23:35.236Z,98.08
2022-11-10T17:26:21.993Z,98.26
2022-11-10T17:29:17.194Z,98.62
2022-11-10T17:32:04.203Z,98.35
2022-11-10T17:34:51.052Z,98.55
2022-11-10T17:37:38.493Z,98.89
2022-11-10T17:40:29.332Z,99.52
2022-11-10T17:43:16.830Z,100.00
2022-11-10T17:46:03.842Z,100.00
2022-11-10T17:48:50.687Z,100.00
2022-11-10T17:51:37.820Z,100.00
2022-11-10T17:54:27.096Z,100.00
2022-11-10T17:57:13.676Z,100.00
2022-11-10T18:00:00.234Z,100.00
2022-11-10T18:02:52.531Z,100.00
2022-11-10T18:05:41.931Z,100.00
2022-11-10T18:08:28.335Z,100.00
2022-11-10T18:11:18.868Z,100.00
2022-11-10T18:14:05.464Z,100.00
2022-11-10T18:16:52.800Z,100.00
2022-11-10T18:19:39.999Z,100.00
2022-11-10T18:22:26.932Z,100.00
2022-11-10T18:25:13.460Z,100.00
2022-11-10T18:28:00.317Z,100.00
2022-11-10T18:30:46.771Z,100.00
2022-11-10T18:33:33.950Z,100.00
2022-11-10T18:36:20.708Z,100.00
2022-11-10T18:39:07.496Z,100.00
2022-11-10T18:41:54.449Z,100.00
2022-11-10T18:44:41.395Z,100.00
2022-11-10T18:47:27.676Z,100.00
2022-11-10T18:50:14.289Z,100.00
2022-11-10T18:53:03.507Z,100.00
2022-11-10T18:55:56.915Z,100.00
2022-11-10T18:58:43.798Z,100.00
2022-11-10T19:01:31.136Z,100.00
2022-11-10T19:04:17.613Z,100.00
2022-11-10T19:07:04.760Z,100.00
2022-11-10T19:09:51.987Z,100.00
2022-11-10T19:12:38.929Z,100.00
2022-11-10T19:15:25.871Z,100.00
2022-11-10T19:18:12.437Z,100.00
2022-11-10T19:21:04.481Z,100.00
2022-11-10T19:23:56.051Z,100.00
2022-11-10T19:26:42.483Z,100.00
2022-11-10T19:29:30.251Z,99.66
2022-11-10T19:32:22.117Z,99.60
2022-11-10T19:35:13.532Z,99.03
2022-11-10T19:38:00.379Z,97.52
2022-11-10T19:40:47.815Z,96.44
2022-11-10T19:43:34.987Z,96.34
2022-11-10T19:46:23.997Z,95.52
2022-11-10T19:49:10.839Z,94.96
2022-11-10T19:51:57.864Z,94.06
2022-11-10T19:54:44.839Z,90.40
2022-11-10T19:57:31.676Z,89.22
2022-11-10T20:00:18.709Z,90.35
2022-11-10T20:03:11.606Z,89.66
2022-11-10T20:06:00.882Z,89.63
2022-11-10T20:08:49.360Z,89.60
2022-11-10T20:11:36.357Z,90.12
2022-11-10T20:14:23.554Z,89.48
2022-11-10T20:17:10.613Z,91.13
2022-11-10T20:19:57.767Z,91.78
2022-11-10T20:22:44.576Z,92.95
2022-11-10T20:25:32.500Z,93.49
2022-11-10T20:28:19.695Z,92.76
2022-11-10T20:31:16.612Z,93.61
2022-11-10T20:34:03.478Z,92.09
2022-11-10T20:36:50.012Z,93.70
2022-11-10T20:39:37.322Z,94.63
2022-11-10T20:42:23.979Z,93.94
2022-11-10T20:45:11.583Z,93.37
2022-11-10T20:47:58.940Z,91.76
2022-11-10T20:50:47.034Z,89.52
2022-11-10T20:53:33.373Z,88.41
2022-11-10T20:56:19.897Z,87.67
2022-11-10T20:59:07.025Z,87.04
2022-11-10T21:01:54.877Z,86.75
2022-11-10T21:04:43.224Z,86.87
2022-11-10T21:07:29.816Z,87.21
2022-11-10T21:10:16.779Z,86.45
2022-11-10T21:13:03.079Z,86.59
2022-11-10T21:15:51.857Z,85.29
2022-11-10T21:18:38.509Z,85.50
2022-11-10T21:21:28.001Z,84.26
2022-11-10T21:24:14.971Z,83.57
2022-11-10T21:27:01.335Z,83.72
2022-11-10T21:29:47.855Z,84.25
2022-11-10T21:32:34.836Z,83.16
2022-11-10T21:35:21.542Z,83.85
2022-11-10T21:38:13.386Z,82.84
2022-11-10T21:41:00.883Z,82.02
2022-11-10T21:43:47.589Z,81.60
2022-11-10T21:46:34.360Z,81.39
2022-11-10T21:49:20.790Z,80.20
2022-11-10T21:52:07.285Z,78.98
2022-11-10T21:54:54.019Z,79.45
2022-11-10T21:57:40.612Z,78.77
2022-11-10T22:00:27.780Z,79.87
2022-11-10T22:03:14.581Z,79.89
2022-11-10T22:06:15.664Z,79.70
2022-11-10T22:09:02.263Z,79.89
2022-11-10T22:12:07.517Z,80.86
2022-11-10T22:15:12.477Z,81.38
2022-11-10T22:18:18.505Z,81.39
2022-11-10T22:21:06.632Z,81.62
2022-11-10T22:24:12.084Z,82.01
2022-11-10T22:27:01.015Z,82.61
2022-11-10T22:29:48.179Z,83.42
2022-11-10T22:32:34.610Z,84.16
2022-11-10T22:35:39.995Z,84.22
2022-11-10T22:38:27.039Z,83.78
2022-11-10T22:41:33.928Z,84.39
2022-11-10T22:44:24.868Z,83.56
2022-11-10T22:47:11.915Z,84.37
2022-11-10T22:50:00.589Z,86.18
2022-11-10T22:52:47.045Z,87.66
2022-11-10T22:55:33.905Z,88.76
2022-11-10T22:58:20.242Z,89.46
2022-11-10T23:01:08.774Z,89.60
2022-11-10T23:03:59.530Z,91.28
2022-11-10T23:06:48.696Z,92.29
2022-11-10T23:09:37.125Z,92.82
2022-11-10T23:12:23.885Z,93.55
2022-11-10T23:15:10.639Z,95.39
2022-11-10T23:17:59.984Z,95.86
2022-11-10T23:20:56.443Z,96.48
2022-11-10T23:23:43.590Z,97.07
2022-11-10T23:26:30.423Z,96.61
2022-11-10T23:29:17.170Z,94.89
2022-11-10T23:32:03.999Z,94.20
2022-11-10T23:34:50.503Z,94.05
2022-11-10T23:37:36.790Z,93.77
2022-11-10T23:40:22.994Z,93.47
2022-11-10T23:43:09.402Z,92.81
2022-11-10T23:46:11.608Z,92.90
2022-11-10T23:48:58.258Z,92.20
2022-11-10T23:51:44.866Z,91.77
2022-11-10T23:54:31.391Z,92.22
2022-11-10T23:57:18.300Z,91.35
